createdAt,value
2023-01-04T00:00:00.793Z,5.27
2023-01-04T00:02:28.608Z,5.25
2023-01-04T00:04:55.546Z,5.15
2023-01-04T00:07:22.520Z,5.10
2023-01-04T00:09:49.359Z,5.13
2023-01-04T00:12:16.308Z,5.31
2023-01-04T00:14:43.259Z,5.40
2023-01-04T00:17:10.161Z,5.43
2023-01-04T00:19:37.118Z,5.15
2023-01-04T00:22:04.174Z,4.92
2023-01-04T00:24:31.101Z,5.14
2023-01-04T00:26:58.001Z,5.18
2023-01-04T00:29:24.952Z,5.16
2023-01-04T00:31:52.407Z,5.00
2023-01-04T00:34:19.443Z,4.98
2023-01-04T00:36:47.131Z,4.90
2023-01-04T00:39:16.195Z,5.03
2023-01-04T00:42:02.423Z,5.12
2023-01-04T00:44:30.430Z,5.06
2023-01-04T00:46:58.830Z,4.98
2023-01-04T00:49:26.579Z,4.94
2023-01-04T00:51:53.632Z,4.83
2023-01-04T00:54:20.844Z,4.84
2023-01-04T00:56:48.254Z,4.67
2023-01-04T00:59:17.700Z,4.68
2023-01-04T01:01:44.902Z,4.74
2023-01-04T01:04:17.863Z,4.78
2023-01-04T01:06:45.170Z,4.77
2023-01-04T01:09:12.379Z,4.76
2023-01-04T01:11:40.326Z,4.69
2023-01-04T01:14:08.651Z,4.65
2023-01-04T01:16:54.520Z,4.62
2023-01-04T01:19:22.537Z,4.66
2023-01-04T01:21:49.616Z,4.42
2023-01-04T01:24:19.158Z,4.55
2023-01-04T01:26:46.128Z,4.57
2023-01-04T01:29:13.074Z,4.40
2023-01-04T01:31:41.305Z,4.18
2023-01-04T01:34:08.990Z,3.96
2023-01-04T01:36:36.992Z,4.03
2023-01-04T01:39:04.927Z,4.10
2023-01-04T01:41:34.849Z,4.13
2023-01-04T01:44:27.514Z,4.30
2023-01-04T01:46:55.934Z,4.08
2023-01-04T01:49:38.283Z,3.92
2023-01-04T01:52:21.527Z,3.77
2023-01-04T01:54:57.123Z,3.67
2023-01-04T01:57:28.390Z,3.60
2023-01-04T01:59:58.420Z,3.60
2023-01-04T02:02:25.630Z,3.60
2023-01-04T02:04:55.671Z,3.61
2023-01-04T02:07:26.827Z,3.73
2023-01-04T02:09:55.233Z,3.66
2023-01-04T02:12:22.170Z,3.58
2023-01-04T02:14:51.564Z,3.68
2023-01-04T02:17:47.089Z,3.82
2023-01-04T02:20:30.771Z,3.76
2023-01-04T02:23:24.551Z,3.66
2023-01-04T02:26:00.542Z,3.73
2023-01-04T02:29:12.946Z,3.70
2023-01-04T02:31:52.052Z,3.61
2023-01-04T02:35:04.186Z,3.63
2023-01-04T02:37:46.541Z,3.63
2023-01-04T02:41:04.511Z,3.65
2023-01-04T02:43:57.712Z,3.75
2023-01-04T02:46:54.127Z,3.79
2023-01-04T02:49:39.427Z,3.77
2023-01-04T02:52:06.276Z,3.64
2023-01-04T02:54:33.977Z,3.59
2023-01-04T02:57:26.521Z,3.65
2023-01-04T03:00:23.990Z,3.59
2023-01-04T03:03:22.120Z,3.30
2023-01-04T03:06:16.819Z,3.28
2023-01-04T03:09:08.498Z,3.38
2023-01-04T03:12:18.202Z,3.21
2023-01-04T03:14:52.131Z,3.22
2023-01-04T03:17:22.921Z,3.24
2023-01-04T03:19:56.809Z,3.28
2023-01-04T03:22:49.107Z,3.25
2023-01-04T03:25:38.876Z,3.44
2023-01-04T03:28:26.538Z,3.61
2023-01-04T03:31:30.718Z,3.47
2023-01-04T03:34:16.856Z,3.31
2023-01-04T03:36:52.311Z,3.36
2023-01-04T03:39:48.300Z,3.24
2023-01-04T03:42:41.003Z,3.31
2023-01-04T03:45:38.077Z,3.53
2023-01-04T03:48:31.952Z,3.61
2023-01-04T03:51:05.002Z,3.61
2023-01-04T03:53:38.202Z,3.67
2023-01-04T03:56:08.760Z,3.71
2023-01-04T03:58:36.846Z,3.80
2023-01-04T04:01:05.739Z,3.83
2023-01-04T04:03:51.426Z,4.09
2023-01-04T04:06:36.885Z,4.15
2023-01-04T04:09:04.768Z,4.31
2023-01-04T04:11:31.884Z,4.34
2023-01-04T04:14:00.237Z,4.46
2023-01-04T04:16:27.883Z,4.55
2023-01-04T04:18:55.369Z,4.63
2023-01-04T04:21:22.938Z,4.69
2023-01-04T04:23:49.869Z,4.71
2023-01-04T04:26:17.272Z,4.73
2023-01-04T04:28:44.718Z,4.77
2023-01-04T04:31:12.165Z,4.86
2023-01-04T04:33:40.245Z,4.99
2023-01-04T04:36:08.779Z,5.13
2023-01-04T04:38:36.207Z,5.21
2023-01-04T04:41:26.197Z,5.31
2023-01-04T04:43:54.040Z,5.35
2023-01-04T04:46:21.538Z,5.37
2023-01-04T04:48:48.533Z,5.41
2023-01-04T04:51:15.495Z,5.47
2023-01-04T04:53:43.038Z,5.48
2023-01-04T04:56:10.643Z,5.45
2023-01-04T04:58:38.406Z,5.49
2023-01-04T05:01:06.423Z,5.43
2023-01-04T05:03:33.875Z,5.35
2023-01-04T05:06:01.663Z,5.33
2023-01-04T05:08:28.902Z,5.37
2023-01-04T05:10:55.751Z,5.37
2023-01-04T05:13:22.828Z,5.36
2023-01-04T05:15:51.255Z,5.40
2023-01-04T05:18:21.465Z,5.41
2023-01-04T05:20:48.823Z,5.30
2023-01-04T05:23:18.676Z,5.27
2023-01-04T05:25:45.916Z,5.29
2023-01-04T05:28:12.903Z,5.28
2023-01-04T05:30:52.531Z,5.32
2023-01-04T05:33:31.990Z,5.26
2023-01-04T05:36:01.944Z,5.27
2023-01-04T05:38:29.978Z,5.28
2023-01-04T05:40:57.167Z,5.26
2023-01-04T05:43:24.683Z,5.25
2023-01-04T05:45:54.169Z,5.20
2023-01-04T05:48:23.384Z,5.22
2023-01-04T05:50:50.927Z,5.22
2023-01-04T05:53:19.056Z,5.22
2023-01-04T05:55:48.136Z,5.25
2023-01-04T05:58:15.521Z,5.30
2023-01-04T06:00:42.435Z,5.38
2023-01-04T06:03:09.456Z,5.48
2023-01-04T06:05:36.487Z,5.53
2023-01-04T06:08:03.439Z,5.53
2023-01-04T06:10:30.398Z,5.49
2023-01-04T06:12:57.400Z,5.57
2023-01-04T06:15:24.443Z,5.65
2023-01-04T06:17:51.358Z,5.74
2023-01-04T06:20:18.399Z,6.35
2023-01-04T06:22:45.314Z,6.52
2023-01-04T06:25:12.272Z,6.63
2023-01-04T06:27:39.262Z,6.41
2023-01-04T06:30:06.726Z,6.32
2023-01-04T06:32:33.754Z,6.34
2023-01-04T06:35:00.677Z,6.41
2023-01-04T06:37:27.879Z,6.52
2023-01-04T06:39:54.751Z,6.67
2023-01-04T06:42:40.243Z,6.66
2023-01-04T06:45:07.587Z,6.70
2023-01-04T06:47:34.616Z,6.72
2023-01-04T06:50:01.536Z,6.81
2023-01-04T06:52:28.540Z,6.84
2023-01-04T06:54:55.591Z,6.90
2023-01-04T06:57:22.576Z,7.24
2023-01-04T06:59:49.486Z,7.09
2023-01-04T07:02:17.164Z,7.01
2023-01-04T07:04:44.381Z,7.05
2023-01-04T07:07:11.622Z,6.95
2023-01-04T07:09:39.357Z,7.07
2023-01-04T07:12:06.528Z,7.15
2023-01-04T07:14:33.464Z,7.18
2023-01-04T07:17:00.445Z,6.95
2023-01-04T07:19:27.505Z,6.91
2023-01-04T07:21:54.465Z,6.91
2023-01-04T07:24:26.333Z,6.94
2023-01-04T07:26:57.106Z,7.04
2023-01-04T07:29:24.027Z,7.10
2023-01-04T07:31:52.166Z,7.20
2023-01-04T07:34:22.171Z,7.21
2023-01-04T07:36:50.209Z,7.31
2023-01-04T07:39:19.006Z,7.31
2023-01-04T07:41:47.214Z,7.32
2023-01-04T07:44:18.320Z,7.32
2023-01-04T07:46:45.687Z,7.40
2023-01-04T07:49:17.813Z,7.46
2023-01-04T07:51:46.998Z,7.37
2023-01-04T07:54:18.178Z,7.42
2023-01-04T07:56:46.747Z,7.34
2023-01-04T07:59:15.520Z,7.36
2023-01-04T08:01:43.320Z,7.49
2023-01-04T08:04:12.603Z,7.58
2023-01-04T08:06:40.819Z,7.67
2023-01-04T08:09:07.886Z,7.73
2023-01-04T08:11:35.113Z,7.70
2023-01-04T08:14:02.739Z,7.64
2023-01-04T08:16:32.877Z,7.79
2023-01-04T08:19:15.159Z,7.86
2023-01-04T08:21:42.995Z,8.00
2023-01-04T08:24:15.419Z,8.19
2023-01-04T08:26:43.299Z,8.36
2023-01-04T08:29:10.971Z,8.15
2023-01-04T08:31:38.680Z,8.16
2023-01-04T08:34:07.311Z,8.07
2023-01-04T08:36:36.669Z,7.88
2023-01-04T08:39:06.609Z,7.87
2023-01-04T08:42:04.210Z,7.96
2023-01-04T08:44:34.599Z,7.92
2023-01-04T08:47:01.655Z,7.81
2023-01-04T08:49:28.706Z,7.80
2023-01-04T08:51:55.629Z,7.81
2023-01-04T08:54:23.121Z,7.78
2023-01-04T08:56:50.120Z,7.85
2023-01-04T08:59:17.124Z,8.00
2023-01-04T09:01:44.180Z,7.74
2023-01-04T09:04:11.233Z,7.61
2023-01-04T09:06:39.297Z,7.58
2023-01-04T09:09:06.590Z,7.64
2023-01-04T09:11:33.723Z,7.70
2023-01-04T09:14:09.448Z,7.76
2023-01-04T09:16:40.139Z,7.67
2023-01-04T09:19:08.245Z,7.52
2023-01-04T09:21:35.798Z,7.50
2023-01-04T09:24:03.039Z,7.52
2023-01-04T09:26:30.142Z,7.65
2023-01-04T09:28:57.640Z,7.70
2023-01-04T09:31:27.701Z,7.56
2023-01-04T09:36:44.761Z,7.64
2023-01-04T09:39:21.147Z,7.59
2023-01-04T09:41:58.544Z,7.72
2023-01-04T10:18:29.783Z,7.32
2023-01-04T10:23:41.788Z,7.52
2023-01-04T10:26:14.998Z,7.53
2023-01-04T10:29:03.220Z,7.52
2023-01-04T10:31:42.045Z,7.44
2023-01-04T10:34:28.306Z,7.38
2023-01-04T10:37:25.393Z,7.30
2023-01-04T10:39:58.897Z,7.26
2023-01-04T10:42:31.832Z,7.45
2023-01-04T10:45:15.937Z,7.30
2023-01-04T10:47:52.307Z,7.33
2023-01-04T10:50:24.843Z,7.29
2023-01-04T10:53:15.828Z,7.34
2023-01-04T10:56:25.841Z,7.34
2023-01-04T10:58:59.288Z,7.36
2023-01-04T11:01:37.796Z,7.38
2023-01-04T11:04:29.632Z,7.35
2023-01-04T11:07:14.280Z,7.32
2023-01-04T11:10:06.955Z,7.33
2023-01-04T11:12:33.953Z,7.37
2023-01-04T11:15:01.081Z,7.38
2023-01-04T11:17:28.843Z,7.29
2023-01-04T11:19:55.952Z,7.31
2023-01-04T11:22:30.161Z,7.30
2023-01-04T11:28:01.642Z,7.30
2023-01-04T11:30:53.950Z,7.31
2023-01-04T11:33:23.447Z,7.23
2023-01-04T11:35:57.093Z,7.23
2023-01-04T11:38:27.884Z,7.25
2023-01-04T11:41:02.362Z,7.24
2023-01-04T11:43:34.787Z,7.25
2023-01-04T11:46:06.512Z,7.27
2023-01-04T11:48:37.386Z,7.32
2023-01-04T11:51:05.746Z,7.35
2023-01-04T11:53:37.622Z,7.39
2023-01-04T11:56:18.427Z,7.38
2023-01-04T11:59:04.835Z,7.23
2023-01-04T12:01:35.235Z,7.26
2023-01-04T12:04:02.897Z,7.29
2023-01-04T12:06:42.231Z,7.32
2023-01-04T12:09:15.331Z,7.43
2023-01-04T12:11:47.164Z,7.44
2023-01-04T12:14:19.054Z,7.50
2023-01-04T12:17:15.073Z,7.55
2023-01-04T12:19:44.615Z,7.55
2023-01-04T12:22:38.326Z,7.46
2023-01-04T12:25:19.961Z,7.44
2023-01-04T12:27:51.786Z,7.48
2023-01-04T12:30:39.076Z,7.37
2023-01-04T12:33:30.821Z,7.38
2023-01-04T12:36:12.663Z,7.39
2023-01-04T12:38:54.607Z,7.36
2023-01-04T12:42:00.660Z,7.32
2023-01-04T12:44:37.250Z,7.29
2023-01-04T12:47:47.407Z,7.35
2023-01-04T12:50:20.693Z,7.40
2023-01-04T12:55:44.681Z,7.36
2023-01-04T12:58:57.998Z,7.32
2023-01-04T13:01:27.057Z,7.31
2023-01-04T13:04:04.254Z,7.25
2023-01-04T13:06:37.731Z,7.31
2023-01-04T13:09:16.849Z,7.32
2023-01-04T13:12:09.033Z,7.22
2023-01-04T13:14:51.085Z,7.30
2023-01-04T13:17:23.511Z,7.19
2023-01-04T13:19:51.137Z,7.13
2023-01-04T13:22:28.607Z,7.17
2023-01-04T13:24:58.626Z,7.23
2023-01-04T13:27:26.730Z,7.27
2023-01-04T13:29:53.928Z,7.27
2023-01-04T13:32:27.057Z,7.30
2023-01-04T13:34:55.822Z,7.38
2023-01-04T13:37:33.020Z,7.32
2023-01-04T13:40:25.096Z,7.38
2023-01-04T13:43:15.352Z,7.25
2023-01-04T13:45:48.511Z,7.18
2023-01-04T13:48:19.456Z,7.17
2023-01-04T13:51:00.007Z,7.14
2023-01-04T13:53:29.408Z,7.10
2023-01-04T13:56:02.205Z,7.11
2023-01-04T13:58:32.100Z,7.05
2023-01-04T14:01:01.392Z,7.00
2023-01-04T14:03:36.862Z,6.96
2023-01-04T14:06:26.686Z,7.00
2023-01-04T14:08:55.581Z,6.94
2023-01-04T14:11:54.317Z,6.90
2023-01-04T14:14:35.535Z,6.88
2023-01-04T14:17:25.571Z,6.87
2023-01-04T14:19:58.506Z,6.91
2023-01-04T14:22:39.583Z,6.94
2023-01-04T14:25:34.382Z,6.86
2023-01-04T14:28:27.496Z,6.74
2023-01-04T14:31:17.670Z,6.74
2023-01-04T14:33:48.317Z,6.71
2023-01-04T14:36:29.241Z,6.71
2023-01-04T14:39:07.889Z,6.62
2023-01-04T14:41:35.003Z,6.60
2023-01-04T14:44:07.699Z,6.61
2023-01-04T14:46:34.627Z,6.68
2023-01-04T14:49:01.605Z,6.69
2023-01-04T14:51:38.102Z,6.59
2023-01-04T14:54:06.768Z,6.59
2023-01-04T14:56:34.620Z,6.50
2023-01-04T14:59:01.637Z,6.43
2023-01-04T15:01:28.665Z,6.45
2023-01-04T15:04:04.703Z,6.48
2023-01-04T15:06:32.406Z,6.81
2023-01-04T15:08:59.439Z,6.98
2023-01-04T15:11:26.797Z,6.85
2023-01-04T15:13:53.713Z,6.98
2023-01-04T15:16:20.962Z,7.15
2023-01-04T15:18:48.126Z,6.86
2023-01-04T15:21:15.231Z,6.79
2023-01-04T15:23:42.144Z,6.91
2023-01-04T15:26:11.681Z,6.95
2023-01-04T15:28:38.717Z,7.01
2023-01-04T15:31:08.227Z,6.86
2023-01-04T15:33:35.750Z,6.69
2023-01-04T15:36:05.666Z,6.58
2023-01-04T15:38:32.892Z,6.49
2023-01-04T15:41:07.515Z,6.41
2023-01-04T15:43:36.420Z,6.36
2023-01-04T15:46:08.364Z,6.37
2023-01-04T15:48:36.035Z,6.44
2023-01-04T15:51:05.321Z,6.46
2023-01-04T15:53:32.215Z,6.38
2023-01-04T15:56:11.067Z,6.35
2023-01-04T15:58:38.712Z,6.29
2023-01-04T16:01:14.577Z,6.27
2023-01-04T16:03:41.600Z,6.27
2023-01-04T16:06:11.494Z,6.48
2023-01-04T16:08:38.639Z,6.55
2023-01-04T16:11:10.692Z,6.32
2023-01-04T16:13:37.659Z,6.23
2023-01-04T16:16:04.984Z,6.20
2023-01-04T16:18:32.829Z,6.16
2023-01-04T16:21:00.112Z,6.10
2023-01-04T16:23:27.626Z,6.11
2023-01-04T16:26:07.770Z,6.21
2023-01-04T16:28:34.867Z,6.22
2023-01-04T16:31:02.867Z,6.16
2023-01-04T16:33:30.233Z,6.14
2023-01-04T16:36:01.258Z,6.10
2023-01-04T16:38:28.474Z,6.06
2023-01-04T16:41:00.635Z,6.02
2023-01-04T16:43:28.909Z,6.05
2023-01-04T16:46:13.548Z,6.06
2023-01-04T16:48:45.054Z,6.10
2023-01-04T16:51:12.753Z,6.08
2023-01-04T16:53:39.803Z,6.04
2023-01-04T16:56:08.955Z,5.97
2023-01-04T16:58:36.465Z,5.97
2023-01-04T17:01:09.315Z,5.93
2023-01-04T17:03:36.718Z,5.85
2023-01-04T17:06:28.128Z,5.91
2023-01-04T17:08:56.564Z,5.97
2023-01-04T17:14:13.851Z,5.84
2023-01-04T17:16:41.176Z,5.81
2023-01-04T17:19:08.339Z,5.79
2023-01-04T17:21:35.833Z,5.79
2023-01-04T17:24:03.756Z,5.72
2023-01-04T17:26:32.352Z,5.77
2023-01-04T17:29:01.025Z,6.01
2023-01-04T17:31:38.292Z,6.19
2023-01-04T17:34:06.148Z,6.17
2023-01-04T17:36:33.318Z,6.03
2023-01-04T17:39:01.503Z,5.95
2023-01-04T17:41:30.146Z,5.88
2023-01-04T17:44:03.123Z,5.80
2023-01-04T17:46:33.230Z,5.76
2023-01-04T17:49:24.060Z,5.71
2023-01-04T17:51:54.733Z,5.67
2023-01-04T17:54:21.710Z,5.90
2023-01-04T17:56:48.620Z,6.26
2023-01-04T17:59:15.644Z,6.18
2023-01-04T18:01:43.622Z,6.52
2023-01-04T18:04:11.676Z,6.15
2023-01-04T18:06:39.798Z,6.03
2023-01-04T18:09:08.298Z,5.98
2023-01-04T18:11:36.287Z,5.88
2023-01-04T18:14:07.786Z,5.95
2023-01-04T18:16:57.400Z,5.92
2023-01-04T18:19:30.092Z,5.72
2023-01-04T18:21:57.904Z,5.62
2023-01-04T18:24:41.962Z,5.53
2023-01-04T18:27:22.211Z,5.48
2023-01-04T18:29:50.598Z,6.15
2023-01-04T18:32:17.974Z,5.68
2023-01-04T18:34:45.014Z,5.94
2023-01-04T18:37:12.068Z,6.07
2023-01-04T18:39:38.988Z,5.94
2023-01-04T18:42:06.273Z,5.89
2023-01-04T18:44:34.822Z,5.80
2023-01-04T18:47:03.027Z,5.63
2023-01-04T18:49:30.070Z,5.58
2023-01-04T18:51:57.140Z,5.59
2023-01-04T18:54:24.130Z,5.59
2023-01-04T18:56:57.029Z,5.61
2023-01-04T18:59:30.636Z,5.80
2023-01-04T19:02:02.419Z,5.87
2023-01-04T19:04:32.735Z,5.62
2023-01-04T19:07:00.186Z,5.55
2023-01-04T19:09:27.351Z,5.52
2023-01-04T19:11:54.311Z,5.48
2023-01-04T19:14:21.245Z,5.45
2023-01-04T19:16:48.380Z,5.39
2023-01-04T19:19:15.383Z,5.40
2023-01-04T19:21:42.319Z,5.50
2023-01-04T19:24:09.369Z,5.64
2023-01-04T19:26:36.401Z,5.84
2023-01-04T19:29:04.483Z,6.05
2023-01-04T19:31:31.538Z,6.25
2023-01-04T19:33:58.604Z,6.57
2023-01-04T19:36:25.540Z,6.70
2023-01-04T19:38:54.515Z,7.03
2023-01-04T19:41:29.319Z,7.00
2023-01-04T19:44:09.278Z,6.96
2023-01-04T19:46:38.765Z,7.01
2023-01-04T19:49:12.407Z,7.07
2023-01-04T19:51:44.004Z,7.27
2023-01-04T19:54:11.735Z,7.16
2023-01-04T19:56:39.112Z,7.12
2023-01-04T19:59:06.924Z,7.07
2023-01-04T20:01:34.011Z,6.40
2023-01-04T20:04:01.380Z,6.50
2023-01-04T20:06:28.414Z,6.87
2023-01-04T20:08:55.293Z,7.12
2023-01-04T20:11:22.290Z,7.25
2023-01-04T20:13:49.136Z,7.19
2023-01-04T20:16:16.092Z,7.20
2023-01-04T20:18:43.048Z,7.13
2023-01-04T20:21:11.776Z,7.17
2023-01-04T20:23:38.899Z,7.19
2023-01-04T20:26:12.487Z,7.26
2023-01-04T20:28:39.647Z,6.96
2023-01-04T20:31:08.859Z,6.76
2023-01-04T20:33:35.938Z,7.09
2023-01-04T20:36:13.602Z,7.37
2023-01-04T20:38:43.049Z,7.15
2023-01-04T20:41:13.120Z,7.20
2023-01-04T20:43:40.388Z,7.22
2023-01-04T20:46:18.282Z,6.80
2023-01-04T20:48:45.690Z,6.65
2023-01-04T20:51:19.965Z,6.20
2023-01-04T20:53:47.615Z,6.24
2023-01-04T20:56:24.413Z,6.80
2023-01-04T20:58:52.252Z,7.11
2023-01-04T21:01:20.829Z,7.03
2023-01-04T21:03:48.217Z,6.91
2023-01-04T21:06:17.530Z,6.79
2023-01-04T21:08:45.887Z,6.84
2023-01-04T21:11:14.260Z,6.98
2023-01-04T21:13:42.278Z,7.12
2023-01-04T21:16:10.149Z,7.29
2023-01-04T21:18:37.722Z,7.17
2023-01-04T21:21:12.491Z,7.23
2023-01-04T21:23:41.125Z,7.16
2023-01-04T21:26:09.375Z,7.09
2023-01-04T21:28:36.378Z,7.01
2023-01-04T21:31:09.956Z,6.94
2023-01-04T21:33:36.909Z,6.83
2023-01-04T21:36:15.413Z,6.80
2023-01-04T21:38:42.616Z,6.76
2023-01-04T21:41:12.351Z,6.94
2023-01-04T21:43:40.258Z,7.02
2023-01-04T21:46:09.948Z,6.99
2023-01-04T21:48:37.032Z,6.95
2023-01-04T21:51:05.323Z,6.88
2023-01-04T21:53:33.873Z,6.80
2023-01-04T21:56:12.399Z,6.76
2023-01-04T21:58:39.969Z,6.71
2023-01-04T22:01:32.395Z,6.57
2023-01-04T22:04:01.774Z,6.75
2023-01-04T22:06:29.305Z,6.90
2023-01-04T22:08:56.251Z,6.99
2023-01-04T22:11:23.114Z,6.42
2023-01-04T22:13:50.826Z,6.23
2023-01-04T22:16:18.278Z,6.31
2023-01-04T22:18:47.236Z,6.14
2023-01-04T22:21:15.614Z,6.28
2023-01-04T22:23:42.525Z,6.57
2023-01-04T22:26:09.519Z,6.95
2023-01-04T22:28:37.369Z,7.16
2023-01-04T22:31:07.020Z,7.16
2023-01-04T22:33:36.074Z,6.97
2023-01-04T22:36:07.992Z,6.90
2023-01-04T22:38:36.527Z,6.79
2023-01-04T22:41:08.757Z,6.77
2023-01-04T22:43:36.817Z,6.71
2023-01-04T22:46:07.009Z,6.72
2023-01-04T22:48:35.471Z,6.89
2023-01-04T22:51:07.754Z,6.90
2023-01-04T22:53:35.263Z,6.88
2023-01-04T22:56:23.214Z,6.77
2023-01-04T22:58:54.621Z,6.71
2023-01-04T23:01:31.478Z,6.63
2023-01-04T23:04:00.339Z,6.56
2023-01-04T23:06:28.848Z,6.60
2023-01-04T23:09:02.219Z,6.58
2023-01-04T23:11:31.108Z,6.69
2023-01-04T23:13:58.747Z,6.78
2023-01-04T23:16:32.040Z,6.77
2023-01-04T23:19:01.248Z,6.82
2023-01-04T23:21:29.123Z,6.76
2023-01-04T23:23:56.086Z,6.62
2023-01-04T23:26:25.195Z,6.52
2023-01-04T23:31:25.190Z,6.35
2023-01-04T23:33:54.489Z,6.44
2023-01-04T23:36:24.984Z,6.66
2023-01-04T23:38:57.631Z,6.72
2023-01-04T23:41:44.714Z,6.66
2023-01-04T23:44:32.122Z,6.61
2023-01-04T23:49:34.374Z,6.55
2023-01-04T23:52:02.152Z,6.62
2023-01-04T23:54:29.551Z,6.58
2023-01-04T23:56:56.943Z,6.44
2023-01-04T23:59:25.776Z,6.55
